Time;durP1;ratioP1;P1;durP2;ratioP2;P2;SDS_P1;SDS_P2;PMS_P1;PMS_P2;Temp;Humidity;BMP_temperature;BMP_pressure;BME280_temperature;BME280_humidity;BME280_pressure;Samples;Min_cycle;Max_cycle;Signal;HPM_P1;HPM_P2
2022/08/26 00:01:19;;;;;;;15.52;7.72;;;21.30;81.90;;;;;;5054065;28;20033;-85
2022/08/26 00:03:45;;;;;;;12.70;7.57;;;21.20;82.10;;;;;;5054832;28;20014;-85
2022/08/26 00:06:10;;;;;;;13.40;7.53;;;21.20;82.20;;;;;;5054797;28;20029;-84
2022/08/26 00:08:36;;;;;;;13.65;7.97;;;21.10;82.10;;;;;;5048569;28;20093;-85
2022/08/26 00:11:02;;;;;;;14.48;7.68;;;21.00;82.30;;;;;;5041555;28;20014;-85
2022/08/26 00:13:28;;;;;;;15.38;7.40;;;21.00;82.60;;;;;;5050013;28;20037;-85
2022/08/26 00:15:53;;;;;;;12.02;8.32;;;21.00;83.00;;;;;;5053409;28;20025;-84
2022/08/26 00:18:20;;;;;;;16.65;7.30;;;20.90;83.00;;;;;;5052820;28;20034;-85
2022/08/26 00:20:45;;;;;;;16.35;8.30;;;20.90;83.10;;;;;;5045481;28;20237;-85
2022/08/26 00:23:11;;;;;;;13.77;7.88;;;20.90;83.30;;;;;;5045947;28;20037;-85
2022/08/26 00:25:37;;;;;;;13.63;8.25;;;20.90;83.20;;;;;;5052149;28;20030;-84
2022/08/26 00:28:04;;;;;;;12.13;7.55;;;20.90;83.40;;;;;;5047372;28;20022;-85
2022/08/26 00:30:30;;;;;;;13.10;8.30;;;20.80;83.30;;;;;;5050904;28;20033;-85
2022/08/26 00:32:56;;;;;;;12.27;8.05;;;20.70;83.70;;;;;;5042341;28;20037;-85
2022/08/26 00:35:24;;;;;;;13.27;7.57;;;20.70;84.00;;;;;;5046300;28;20025;-84
2022/08/26 00:37:50;;;;;;;12.55;8.02;;;20.70;84.00;;;;;;5050687;28;20014;-85
2022/08/26 00:40:19;;;;;;;13.95;8.27;;;20.60;84.20;;;;;;5048032;28;20037;-84
2022/08/26 00:42:45;;;;;;;14.75;8.02;;;20.60;84.40;;;;;;5048696;28;20375;-84
2022/08/26 00:45:11;;;;;;;13.68;7.75;;;20.50;84.50;;;;;;5040571;28;20072;-85
2022/08/26 00:47:43;;;;;;;14.05;8.27;;;20.50;84.60;;;;;;5052035;28;20029;-85
2022/08/26 00:50:14;;;;;;;11.02;7.63;;;20.50;84.80;;;;;;5041123;28;20025;-85
2022/08/26 00:52:40;;;;;;;15.33;9.30;;;20.50;84.90;;;;;;5039360;28;20037;-84
2022/08/26 00:55:23;;;;;;;13.27;8.57;;;20.50;85.20;;;;;;5065436;28;20391;-85
2022/08/26 00:57:50;;;;;;;16.50;8.57;;;20.50;85.20;;;;;;5048445;28;20021;-84
2022/08/26 01:00:20;;;;;;;12.32;8.35;;;20.40;85.50;;;;;;5054930;28;20092;-86
2022/08/26 01:02:48;;;;;;;13.40;8.13;;;20.40;85.70;;;;;;5050993;28;20036;-84
2022/08/26 01:05:15;;;;;;;13.00;8.27;;;20.30;85.70;;;;;;5047196;28;20029;-85
2022/08/26 01:07:40;;;;;;;15.32;8.43;;;20.30;85.80;;;;;;5051513;28;20030;-84
2022/08/26 01:10:14;;;;;;;15.30;8.02;;;20.30;86.10;;;;;;5047394;28;20033;-84
2022/08/26 01:12:54;;;;;;;13.70;8.57;;;20.20;86.00;;;;;;5045870;28;20029;-85
2022/08/26 01:15:29;;;;;;;12.40;8.68;;;20.20;86.30;;;;;;5045035;28;20131;-85
2022/08/26 01:17:57;;;;;;;16.83;8.48;;;20.20;86.70;;;;;;5047617;28;20036;-84
2022/08/26 01:20:37;;;;;;;14.60;8.52;;;20.20;86.70;;;;;;5047782;28;20041;-84
2022/08/26 01:23:06;;;;;;;12.27;8.65;;;20.20;86.70;;;;;;5039768;28;20026;-85
2022/08/26 01:25:35;;;;;;;17.23;8.85;;;20.20;86.90;;;;;;5048297;28;20064;-83
2022/08/26 01:28:05;;;;;;;15.15;8.55;;;20.20;87.30;;;;;;5051255;28;20026;-85
2022/08/26 01:30:32;;;;;;;15.63;9.02;;;20.10;87.20;;;;;;5047966;28;20025;-84
2022/08/26 01:33:01;;;;;;;15.15;8.77;;;20.10;87.40;;;;;;5047219;28;20026;-84
2022/08/26 01:35:28;;;;;;;13.77;8.38;;;20.10;87.50;;;;;;5050243;28;20558;-84
2022/08/26 01:37:54;;;;;;;14.50;9.27;;;20.10;87.60;;;;;;5049619;28;20053;-85
2022/08/26 01:40:24;;;;;;;13.02;8.25;;;20.10;87.60;;;;;;5036698;28;20092;-84
2022/08/26 01:42:52;;;;;;;13.57;9.05;;;20.00;87.70;;;;;;5050975;28;20081;-84
2022/08/26 01:45:23;;;;;;;14.48;9.10;;;20.10;88.00;;;;;;5046900;28;20052;-84
2022/08/26 01:47:52;;;;;;;18.77;9.05;;;20.00;88.10;;;;;;5047916;28;20025;-85
2022/08/26 01:50:21;;;;;;;15.43;8.95;;;20.00;87.80;;;;;;5051497;28;20025;-84
2022/08/26 01:52:48;;;;;;;16.25;9.30;;;20.00;88.00;;;;;;5047012;28;20045;-84
2022/08/26 01:55:17;;;;;;;15.70;9.45;;;20.00;88.40;;;;;;5044896;28;20113;-86
2022/08/26 01:57:44;;;;;;;14.85;9.32;;;20.00;88.60;;;;;;5046853;28;20089;-84
2022/08/26 02:00:14;;;;;;;17.58;8.88;;;20.00;88.80;;;;;;5045816;28;20522;-86
2022/08/26 02:02:49;;;;;;;19.35;8.82;;;20.00;88.70;;;;;;5042466;28;20017;-84
2022/08/26 02:05:18;;;;;;;16.88;9.27;;;20.00;88.70;;;;;;5042118;28;20029;-84
2022/08/26 02:07:44;;;;;;;13.35;9.10;;;20.00;89.00;;;;;;5047733;28;20017;-84
2022/08/26 02:10:10;;;;;;;16.88;9.13;;;20.00;89.10;;;;;;5047713;28;20037;-85
2022/08/26 02:12:37;;;;;;;15.23;8.77;;;19.90;89.10;;;;;;5046371;28;20037;-84
2022/08/26 02:15:07;;;;;;;15.90;9.20;;;19.90;89.10;;;;;;5046680;28;20047;-84
2022/08/26 02:17:39;;;;;;;18.02;9.40;;;19.90;89.20;;;;;;5040275;28;20034;-84
2022/08/26 02:20:05;;;;;;;14.48;8.60;;;19.80;89.20;;;;;;5050023;28;20021;-84
2022/08/26 02:22:31;;;;;;;16.75;8.95;;;19.70;89.20;;;;;;5042519;28;20057;-85
2022/08/26 02:25:06;;;;;;;14.45;9.63;;;19.70;89.30;;;;;;5045468;28;20057;-84
2022/08/26 02:27:34;;;;;;;15.88;9.23;;;19.70;89.60;;;;;;5035795;28;20018;-85
2022/08/26 02:30:08;;;;;;;19.63;8.88;;;19.70;89.70;;;;;;5041002;28;20048;-84
2022/08/26 02:32:34;;;;;;;14.82;9.38;;;19.70;90.00;;;;;;5040499;28;20017;-84
2022/08/26 02:34:59;;;;;;;14.48;9.07;;;19.70;90.20;;;;;;5046115;28;20030;-84
2022/08/26 02:37:29;;;;;;;17.02;9.70;;;19.80;90.10;;;;;;5043945;28;20061;-85
2022/08/26 02:39:55;;;;;;;18.80;10.60;;;19.80;90.30;;;;;;5043210;28;20465;-85
2022/08/26 02:42:20;;;;;;;20.30;10.15;;;19.80;90.20;;;;;;5047042;28;20029;-84
2022/08/26 02:44:46;;;;;;;17.95;10.18;;;19.80;90.30;;;;;;5042555;28;20035;-84
2022/08/26 02:47:13;;;;;;;16.88;9.63;;;19.80;90.40;;;;;;5045056;28;20029;-85
2022/08/26 02:49:40;;;;;;;15.85;9.18;;;19.90;90.40;;;;;;5046079;28;20022;-84
2022/08/26 02:52:06;;;;;;;18.30;10.20;;;19.90;90.40;;;;;;5042131;28;20025;-85
2022/08/26 02:54:31;;;;;;;15.60;10.25;;;19.90;90.50;;;;;;5035054;28;20033;-83
2022/08/26 02:56:57;;;;;;;22.23;10.55;;;19.90;90.40;;;;;;5047022;28;20080;-84
2022/08/26 02:59:23;;;;;;;18.33;9.57;;;19.90;90.40;;;;;;5053033;28;20054;-84
2022/08/26 03:01:48;;;;;;;15.18;9.77;;;20.00;90.40;;;;;;5037698;28;20021;-84
2022/08/26 03:04:14;;;;;;;17.75;9.00;;;19.90;90.40;;;;;;5048760;28;20017;-85
2022/08/26 03:06:40;;;;;;;16.02;9.10;;;19.80;90.40;;;;;;5044865;28;20029;-84
2022/08/26 03:09:06;;;;;;;14.10;9.20;;;19.80;90.40;;;;;;5039309;28;20033;-85
2022/08/26 03:11:32;;;;;;;17.88;9.32;;;19.80;90.60;;;;;;5045234;28;20116;-85
2022/08/26 03:13:59;;;;;;;13.70;9.57;;;19.70;90.80;;;;;;5045270;28;20030;-84
2022/08/26 03:16:25;;;;;;;16.45;9.32;;;19.80;91.00;;;;;;5056361;28;20080;-84
2022/08/26 03:18:50;;;;;;;20.65;9.93;;;19.70;90.90;;;;;;5048747;28;20021;-84
2022/08/26 03:21:17;;;;;;;13.60;9.85;;;19.70;91.30;;;;;;5047035;28;20065;-83
2022/08/26 03:23:44;;;;;;;16.23;9.63;;;19.70;91.40;;;;;;5047610;28;20049;-84
2022/08/26 03:26:11;;;;;;;14.48;10.05;;;19.70;91.30;;;;;;5045284;28;20061;-85
2022/08/26 03:30:38;;;;;;;14.88;9.90;;;19.70;91.20;;;;;;5046966;28;20033;-85
2022/08/26 03:31:27;;;;;;;16.77;9.32;;;19.60;91.20;;;;;;5045420;28;20026;-84
2022/08/26 03:33:52;;;;;;;16.40;9.75;;;19.50;91.10;;;;;;5048099;28;20021;-84
2022/08/26 03:36:18;;;;;;;15.90;10.55;;;19.50;91.40;;;;;;5041215;28;20057;-85
2022/08/26 03:38:44;;;;;;;16.10;10.10;;;19.50;91.60;;;;;;5044281;28;20036;-84
2022/08/26 03:41:11;;;;;;;13.80;9.15;;;19.50;91.90;;;;;;5045768;28;20037;-84
2022/08/26 03:43:37;;;;;;;19.20;11.20;;;19.50;92.00;;;;;;5046038;28;20022;-84
2022/08/26 03:46:07;;;;;;;14.73;9.73;;;19.50;92.10;;;;;;5046070;28;20064;-85
2022/08/26 03:48:33;;;;;;;14.30;9.10;;;19.60;92.00;;;;;;5043875;28;20022;-84
2022/08/26 03:51:00;;;;;;;18.90;9.57;;;19.50;92.00;;;;;;5051215;28;20041;-85
2022/08/26 03:53:25;;;;;;;14.50;9.85;;;19.50;91.90;;;;;;5045355;28;20040;-84
2022/08/26 03:55:51;;;;;;;14.38;10.55;;;19.50;92.10;;;;;;5042295;28;20034;-84
2022/08/26 03:58:17;;;;;;;21.33;10.73;;;19.60;92.20;;;;;;5046964;28;20084;-85
2022/08/26 04:00:43;;;;;;;16.20;10.07;;;19.60;92.10;;;;;;5043919;28;20021;-85
2022/08/26 04:03:10;;;;;;;13.95;9.80;;;19.60;92.10;;;;;;5047123;28;20021;-84
2022/08/26 04:05:36;;;;;;;16.15;10.25;;;19.60;92.20;;;;;;5048264;28;20085;-84
2022/08/26 04:08:04;;;;;;;19.70;9.73;;;19.70;92.00;;;;;;5040748;28;20033;-83
2022/08/26 04:10:31;;;;;;;15.65;9.95;;;19.70;92.00;;;;;;5033923;28;20026;-83
2022/08/26 04:12:57;;;;;;;18.55;9.63;;;19.70;91.90;;;;;;5034064;28;20120;-82
2022/08/26 04:15:23;;;;;;;15.57;10.50;;;19.70;92.10;;;;;;5031710;28;20049;-83
2022/08/26 04:17:49;;;;;;;15.63;9.85;;;19.70;92.00;;;;;;5031142;28;20421;-81
2022/08/26 04:20:16;;;;;;;17.25;10.40;;;19.70;92.00;;;;;;5032360;28;20029;-81
2022/08/26 04:22:43;;;;;;;18.77;10.52;;;19.70;92.00;;;;;;5033938;28;20022;-80
2022/08/26 04:25:10;;;;;;;19.80;9.93;;;19.70;92.20;;;;;;5035928;28;20063;-82
2022/08/26 04:27:36;;;;;;;15.20;9.75;;;19.70;92.30;;;;;;5031475;28;20030;-81
2022/08/26 04:30:02;;;;;;;14.23;10.38;;;19.70;92.40;;;;;;5034457;28;20029;-81
2022/08/26 04:32:28;;;;;;;20.42;10.45;;;19.70;92.40;;;;;;5034070;28;20029;-82
2022/08/26 04:34:53;;;;;;;15.85;9.23;;;19.70;92.40;;;;;;5033958;28;20469;-80
2022/08/26 04:37:19;;;;;;;15.30;10.18;;;19.60;92.50;;;;;;5030448;28;20037;-81
2022/08/26 04:39:44;;;;;;;16.05;9.35;;;19.70;92.50;;;;;;5032944;28;20388;-81
2022/08/26 04:42:09;;;;;;;17.33;10.07;;;19.60;92.60;;;;;;5025950;28;20030;-81
2022/08/26 04:44:36;;;;;;;21.17;10.23;;;19.70;92.70;;;;;;5027488;28;20057;-81
2022/08/26 04:47:03;;;;;;;14.88;9.23;;;19.60;92.80;;;;;;5029218;28;20543;-81
2022/08/26 04:49:28;;;;;;;21.65;10.05;;;19.70;92.70;;;;;;5034375;28;20017;-80
2022/08/26 04:51:54;;;;;;;15.50;10.85;;;19.70;92.60;;;;;;5033258;28;20033;-80
2022/08/26 04:54:19;;;;;;;14.10;10.02;;;19.70;92.50;;;;;;5030737;28;20414;-81
2022/08/26 04:56:48;;;;;;;18.50;9.90;;;19.60;92.60;;;;;;5026572;28;20034;-80
2022/08/26 04:59:16;;;;;;;16.30;10.15;;;19.70;92.70;;;;;;5030613;28;20080;-80
2022/08/26 05:01:47;;;;;;;15.55;9.80;;;19.70;92.60;;;;;;5030681;28;20101;-80
2022/08/26 05:04:12;;;;;;;;;;;19.70;92.70;;;;;;5032045;28;20101;-80
2022/08/26 05:06:38;;;;;;;18.58;10.43;;;19.70;92.70;;;;;;5030814;28;20090;-80
2022/08/26 05:09:04;;;;;;;13.50;9.57;;;19.70;92.70;;;;;;5028909;28;20086;-80
2022/08/26 05:11:29;;;;;;;14.65;9.63;;;19.70;92.70;;;;;;5028057;28;20029;-82
2022/08/26 05:13:55;;;;;;;20.60;9.50;;;19.80;92.60;;;;;;5024972;28;20171;-82
2022/08/26 05:16:21;;;;;;;21.30;10.35;;;19.90;92.60;;;;;;5030459;28;20492;-82
2022/08/26 05:18:46;;;;;;;19.50;9.90;;;19.90;92.50;;;;;;5031947;28;20021;-82
2022/08/26 05:21:26;;;;;;;15.00;9.57;;;20.00;92.50;;;;;;5031231;28;20104;-82
2022/08/26 05:23:53;;;;;;;15.07;10.18;;;20.00;92.40;;;;;;5030593;28;20032;-82
2022/08/26 05:26:24;;;;;;;14.05;8.85;;;20.00;92.30;;;;;;5031677;28;20032;-81
2022/08/26 05:28:51;;;;;;;16.83;9.52;;;20.10;92.10;;;;;;5022794;28;20484;-82
2022/08/26 05:31:22;;;;;;;23.00;9.63;;;20.20;92.00;;;;;;5033004;28;20110;-82
2022/08/26 05:33:48;;;;;;;13.43;8.32;;;20.30;91.80;;;;;;5031936;28;20021;-81
2022/08/26 05:36:17;;;;;;;15.57;9.45;;;20.40;91.70;;;;;;5031147;28;20041;-82
2022/08/26 05:38:43;;;;;;;13.52;9.25;;;20.40;91.40;;;;;;5023006;28;20032;-82
2022/08/26 05:41:27;;;;;;;12.77;9.20;;;20.50;91.30;;;;;;5024637;28;20105;-82
2022/08/26 05:43:56;;;;;;;16.60;8.75;;;20.50;91.20;;;;;;5030133;28;20068;-82
2022/08/26 05:46:22;;;;;;;16.15;8.82;;;20.50;91.30;;;;;;5027346;28;20493;-83
2022/08/26 05:48:47;;;;;;;14.98;8.80;;;20.60;91.10;;;;;;5033533;28;20014;-82
2022/08/26 05:51:13;;;;;;;13.50;8.32;;;20.60;91.10;;;;;;5028825;28;20610;-82
2022/08/26 05:53:40;;;;;;;16.30;8.75;;;20.60;91.10;;;;;;5027004;28;20129;-82
2022/08/26 05:56:07;;;;;;;14.00;8.43;;;20.60;91.10;;;;;;5029764;28;20030;-83
2022/08/26 05:58:34;;;;;;;17.48;8.90;;;20.80;90.90;;;;;;5031736;28;20515;-83
2022/08/26 06:01:11;;;;;;;13.48;8.35;;;20.90;90.60;;;;;;5028207;28;20109;-82
2022/08/26 06:03:38;;;;;;;14.10;7.78;;;21.00;90.30;;;;;;5032083;28;20021;-83
2022/08/26 06:06:10;;;;;;;14.65;8.20;;;21.10;90.00;;;;;;5029703;28;20030;-83
2022/08/26 06:08:36;;;;;;;15.23;8.00;;;21.40;89.60;;;;;;5018505;28;20037;-83
2022/08/26 06:11:05;;;;;;;14.25;7.53;;;21.50;89.20;;;;;;5023678;28;20022;-82
2022/08/26 06:13:32;;;;;;;14.10;7.72;;;21.80;88.70;;;;;;5031899;28;20080;-83
2022/08/26 06:16:01;;;;;;;16.63;7.75;;;21.70;87.80;;;;;;5033084;28;20025;-83
2022/08/26 06:18:35;;;;;;;17.00;7.45;;;21.90;88.00;;;;;;5033359;28;20025;-83
2022/08/26 06:21:14;;;;;;;13.55;7.07;;;21.90;87.40;;;;;;5041557;28;20041;-83
2022/08/26 06:26:24;;;;;;;12.90;7.03;;;22.00;86.90;;;;;;5026926;28;20099;-83
2022/08/26 06:28:49;;;;;;;12.60;6.78;;;22.10;86.80;;;;;;5030639;28;20021;-83
2022/08/26 06:31:15;;;;;;;14.65;6.85;;;22.30;86.30;;;;;;5032434;28;20393;-83
2022/08/26 06:33:42;;;;;;;15.77;7.13;;;22.40;86.30;;;;;;5028813;28;20117;-83
2022/08/26 06:36:08;;;;;;;13.32;6.85;;;22.30;86.20;;;;;;5027634;28;20029;-84
2022/08/26 06:38:33;;;;;;;14.57;7.65;;;22.50;86.00;;;;;;5029594;28;20048;-83
2022/08/26 06:40:59;;;;;;;14.75;6.93;;;22.50;85.70;;;;;;5030539;28;20038;-83
2022/08/26 06:43:26;;;;;;;14.07;7.32;;;22.60;85.40;;;;;;5024471;28;20025;-84
2022/08/26 06:46:04;;;;;;;12.02;7.30;;;22.70;84.90;;;;;;5027575;28;20037;-84
2022/08/26 06:48:30;;;;;;;15.60;7.38;;;22.80;84.90;;;;;;5016895;28;20473;-83
2022/08/26 06:51:14;;;;;;;10.60;6.40;;;22.90;84.20;;;;;;5028106;28;20040;-83
2022/08/26 06:53:41;;;;;;;16.08;7.57;;;23.00;84.20;;;;;;5034678;28;20036;-83
2022/08/26 06:56:09;;;;;;;10.38;7.22;;;22.90;83.70;;;;;;5038471;28;20029;-83
2022/08/26 06:58:36;;;;;;;13.70;6.60;;;22.90;84.10;;;;;;5043508;28;20029;-83
2022/08/26 07:01:02;;;;;;;13.43;7.53;;;23.10;83.80;;;;;;5032858;28;20033;-83
2022/08/26 07:03:28;;;;;;;11.70;6.72;;;23.10;83.30;;;;;;5027397;28;20030;-83
2022/08/26 07:06:00;;;;;;;17.70;6.68;;;23.10;83.10;;;;;;5029394;28;20033;-83
2022/08/26 07:08:26;;;;;;;11.15;6.28;;;23.30;82.80;;;;;;5046725;28;20115;-83
2022/08/26 07:10:52;;;;;;;14.85;6.93;;;23.40;82.80;;;;;;5031427;28;20061;-83
2022/08/26 07:13:17;;;;;;;13.77;6.68;;;23.60;82.10;;;;;;5028921;28;20028;-83
2022/08/26 07:15:43;;;;;;;13.57;6.00;;;23.50;82.10;;;;;;5033243;28;20064;-84
2022/08/26 07:18:08;;;;;;;11.98;6.30;;;23.80;81.90;;;;;;5032401;28;20374;-83
2022/08/26 07:20:41;;;;;;;14.35;6.10;;;23.70;81.00;;;;;;5032827;28;20050;-83
2022/08/26 07:23:08;;;;;;;13.65;6.75;;;23.90;81.50;;;;;;5031617;28;20053;-84
2022/08/26 07:25:38;;;;;;;13.13;6.30;;;23.90;81.10;;;;;;5032343;28;20064;-82
2022/08/26 07:28:04;;;;;;;13.95;6.15;;;24.00;81.60;;;;;;5032816;28;20021;-83
2022/08/26 07:30:29;;;;;;;12.43;6.47;;;24.10;81.50;;;;;;5051415;28;20079;-83
2022/08/26 07:32:57;;;;;;;16.20;7.15;;;24.10;80.90;;;;;;5031237;28;20037;-83
2022/08/26 07:35:22;;;;;;;16.20;6.88;;;23.80;80.40;;;;;;5032590;28;20068;-83
2022/08/26 07:37:48;;;;;;;12.57;6.25;;;23.80;80.60;;;;;;5033081;28;20060;-83
2022/08/26 07:40:13;;;;;;;13.38;5.95;;;23.90;81.10;;;;;;5036356;28;20033;-83
2022/08/26 07:42:39;;;;;;;13.13;6.13;;;23.90;81.60;;;;;;5038074;28;20040;-83
2022/08/26 07:45:05;;;;;;;15.23;6.88;;;23.80;81.40;;;;;;5030898;28;20046;-83
2022/08/26 07:47:31;;;;;;;15.23;6.82;;;23.70;81.50;;;;;;5032420;28;21373;-83
2022/08/26 07:49:57;;;;;;;14.00;7.07;;;23.80;81.30;;;;;;5029624;28;20032;-83
2022/08/26 07:52:25;;;;;;;15.50;6.80;;;23.70;81.50;;;;;;5029842;28;20481;-83
2022/08/26 07:54:51;;;;;;;11.27;6.78;;;23.70;82.00;;;;;;5036665;28;20021;-83
2022/08/26 07:57:16;;;;;;;13.88;7.15;;;23.70;81.70;;;;;;5036608;28;20033;-83
2022/08/26 07:59:42;;;;;;;13.82;6.38;;;23.70;82.10;;;;;;5036966;28;20026;-83
2022/08/26 08:02:07;;;;;;;13.27;6.50;;;23.50;81.90;;;;;;5036143;28;20432;-83
2022/08/26 08:04:33;;;;;;;13.15;6.53;;;23.60;81.90;;;;;;5039861;28;20124;-83
2022/08/26 08:06:59;;;;;;;12.48;7.10;;;23.60;81.60;;;;;;5035249;28;20045;-83
2022/08/26 08:09:24;;;;;;;11.38;6.47;;;23.60;82.40;;;;;;5034972;28;20034;-83
2022/08/26 08:11:51;;;;;;;12.48;7.10;;;23.70;82.50;;;;;;5035639;28;20025;-83
2022/08/26 08:14:17;;;;;;;15.45;7.43;;;24.00;82.90;;;;;;5037128;28;20025;-83
2022/08/26 08:16:42;;;;;;;12.52;7.13;;;24.00;82.90;;;;;;5035666;28;20064;-83
2022/08/26 08:19:08;;;;;;;14.90;7.75;;;24.10;82.60;;;;;;5031369;28;20030;-83
2022/08/26 08:21:33;;;;;;;15.73;7.40;;;24.10;83.00;;;;;;5035554;28;20037;-83
2022/08/26 08:23:59;;;;;;;14.55;6.70;;;24.10;81.80;;;;;;5025954;28;20052;-83
2022/08/26 08:26:25;;;;;;;12.23;6.85;;;24.00;82.30;;;;;;5044124;28;20034;-83
2022/08/26 08:28:56;;;;;;;12.25;7.20;;;24.00;82.50;;;;;;5030602;28;20014;-83
2022/08/26 08:31:28;;;;;;;13.20;7.65;;;24.00;82.70;;;;;;5033829;28;20037;-83
2022/08/26 08:33:53;;;;;;;13.25;6.97;;;24.10;82.70;;;;;;5030772;28;20033;-83
2022/08/26 08:36:19;;;;;;;12.48;6.82;;;24.00;82.90;;;;;;5035466;28;20036;-83
2022/08/26 08:38:45;;;;;;;15.18;7.40;;;24.10;83.00;;;;;;5030042;28;20048;-83
2022/08/26 08:41:34;;;;;;;12.93;7.45;;;24.10;82.60;;;;;;5036264;28;20044;-83
2022/08/26 08:44:01;;;;;;;13.82;6.70;;;24.30;83.00;;;;;;5031116;28;20033;-83
2022/08/26 08:46:28;;;;;;;10.88;6.57;;;24.50;82.60;;;;;;5030985;28;20041;-83
2022/08/26 08:48:58;;;;;;;16.42;6.93;;;24.70;82.40;;;;;;5025918;28;20112;-83
2022/08/26 08:51:48;;;;;;;13.57;6.45;;;25.00;80.90;;;;;;5037317;28;20081;-83
2022/08/26 08:54:14;;;;;;;9.65;6.68;;;25.30;80.10;;;;;;5032106;28;20374;-83
2022/08/26 08:56:52;;;;;;;12.68;6.30;;;25.50;79.00;;;;;;5041291;28;20116;-83
2022/08/26 08:59:22;;;;;;;15.90;6.45;;;26.10;78.30;;;;;;5036484;28;20120;-83
2022/08/26 09:01:57;;;;;;;;;;;26.40;77.00;;;;;;5034714;28;20029;-84
2022/08/26 09:04:25;;;;;;;13.82;6.30;;;26.50;76.70;;;;;;5033999;28;19909;-83
2022/08/26 09:06:54;;;;;;;17.98;6.55;;;26.50;76.40;;;;;;5046306;28;20114;-82
2022/08/26 09:09:36;;;;;;;11.27;6.32;;;26.70;75.70;;;;;;5034146;28;20112;-83
2022/08/26 09:12:04;;;;;;;10.30;5.78;;;26.70;74.80;;;;;;5033818;28;20384;-83
2022/08/26 09:14:30;;;;;;;13.68;6.18;;;26.70;74.90;;;;;;5035628;28;20040;-83
2022/08/26 09:17:03;;;;;;;13.48;5.90;;;26.90;73.80;;;;;;5039374;28;20029;-83
2022/08/26 09:19:38;;;;;;;12.80;5.97;;;27.20;74.30;;;;;;5032536;28;20556;-83
2022/08/26 09:22:04;;;;;;;15.00;5.93;;;27.40;72.70;;;;;;5034942;28;20025;-83
2022/08/26 09:24:33;;;;;;;14.00;6.10;;;27.50;72.20;;;;;;5033790;28;20040;-83
2022/08/26 09:26:59;;;;;;;9.32;5.72;;;27.40;71.60;;;;;;5031698;28;20025;-83
2022/08/26 09:29:27;;;;;;;13.30;5.90;;;27.30;71.50;;;;;;5039821;28;20049;-83
2022/08/26 09:32:12;;;;;;;10.60;6.18;;;27.40;71.90;;;;;;5028998;28;20104;-83
2022/08/26 09:34:56;;;;;;;10.50;5.88;;;27.50;71.00;;;;;;5037310;28;20017;-83
2022/08/26 09:37:40;;;;;;;13.60;5.35;;;27.50;71.10;;;;;;5025138;28;20021;-83
2022/08/26 09:40:30;;;;;;;15.80;6.10;;;27.40;71.80;;;;;;5029527;28;20018;-83
2022/08/26 09:43:08;;;;;;;10.52;5.75;;;27.30;71.60;;;;;;5034018;28;20033;-83
2022/08/26 09:45:35;;;;;;;12.95;5.50;;;27.10;71.40;;;;;;5030333;28;20042;-84
2022/08/26 09:48:01;;;;;;;18.73;6.03;;;27.00;71.80;;;;;;5039577;28;20032;-83
2022/08/26 09:50:37;;;;;;;13.10;5.68;;;27.00;71.00;;;;;;5038666;28;20045;-83
2022/08/26 09:53:13;;;;;;;14.45;6.07;;;26.70;71.60;;;;;;5030129;28;20026;-83
2022/08/26 09:55:41;;;;;;;10.90;5.47;;;26.60;72.00;;;;;;5029571;28;20025;-83
2022/08/26 09:58:12;;;;;;;13.23;5.80;;;26.60;72.30;;;;;;5033971;28;20043;-83
2022/08/26 10:00:55;;;;;;;11.23;6.22;;;26.50;73.00;;;;;;5036536;28;20036;-83
2022/08/26 10:03:28;;;;;;;14.20;6.72;;;26.40;72.50;;;;;;5034402;28;20075;-83
2022/08/26 10:05:58;;;;;;;14.45;6.05;;;26.30;72.90;;;;;;5039853;28;20029;-83
2022/08/26 10:08:37;;;;;;;16.15;6.53;;;26.40;73.40;;;;;;5032656;28;20021;-83
2022/08/26 10:11:26;;;;;;;13.85;6.10;;;26.30;73.20;;;;;;5033082;28;20045;-83
2022/08/26 10:13:58;;;;;;;16.85;6.72;;;26.30;73.40;;;;;;5013485;28;20563;-83
2022/08/26 10:16:36;;;;;;;12.82;6.55;;;26.30;73.80;;;;;;5036698;28;20060;-83
2022/08/26 10:19:10;;;;;;;15.82;7.28;;;26.00;74.70;;;;;;5034556;28;20022;-83
2022/08/26 10:21:59;;;;;;;10.40;5.90;;;26.10;75.10;;;;;;5038170;28;20033;-83
2022/08/26 10:24:31;;;;;;;14.70;6.57;;;26.00;75.00;;;;;;5036068;28;20064;-83
2022/08/26 10:27:15;;;;;;;19.52;6.40;;;26.10;75.10;;;;;;5036288;28;20052;-83
2022/08/26 10:29:47;;;;;;;11.60;5.75;;;26.00;75.50;;;;;;5034888;28;20025;-83
2022/08/26 10:32:39;;;;;;;13.05;5.57;;;26.00;75.60;;;;;;5033344;28;20025;-82
2022/08/26 10:35:07;;;;;;;20.20;6.75;;;26.00;75.50;;;;;;5024724;28;20053;-83
2022/08/26 10:37:42;;;;;;;13.38;6.43;;;25.90;75.30;;;;;;5034747;28;20365;-83
2022/08/26 10:40:14;;;;;;;14.80;6.45;;;25.90;75.30;;;;;;5028145;28;20477;-83
2022/08/26 10:42:50;;;;;;;15.63;6.13;;;25.80;74.90;;;;;;5029502;28;20021;-83
2022/08/26 10:45:20;;;;;;;14.88;6.22;;;26.00;74.80;;;;;;5030413;28;20049;-83
2022/08/26 10:47:58;;;;;;;11.93;5.78;;;25.90;75.00;;;;;;5033568;28;20025;-83
2022/08/26 10:50:30;;;;;;;16.30;5.78;;;26.00;75.50;;;;;;5035989;28;20864;-83
2022/08/26 10:53:32;;;;;;;16.92;6.65;;;26.20;74.70;;;;;;5027971;28;20041;-84
2022/08/26 10:55:58;;;;;;;12.93;5.78;;;26.20;74.00;;;;;;5031046;28;20029;-84
2022/08/26 10:58:47;;;;;;;19.50;7.05;;;26.30;74.70;;;;;;5032693;28;20452;-84
2022/08/26 11:04:49;;;;;;;12.38;6.40;;;26.30;74.50;;;;;;5028452;28;20566;-83
2022/08/26 11:07:41;;;;;;;11.55;6.05;;;26.40;73.80;;;;;;5012643;28;20049;-84
2022/08/26 11:10:15;;;;;;;13.85;5.82;;;26.50;73.30;;;;;;5024652;28;20033;-83
2022/08/26 11:12:40;;;;;;;12.40;5.32;;;26.20;72.00;;;;;;5027660;28;20032;-83
2022/08/26 11:15:10;;;;;;;14.63;5.40;;;26.10;72.00;;;;;;5031297;28;20034;-84
2022/08/26 11:17:44;;;;;;;14.73;5.55;;;26.30;71.20;;;;;;5031340;28;20037;-83
2022/08/26 11:20:22;;;;;;;17.25;5.47;;;26.30;71.10;;;;;;5032448;28;20057;-83
2022/08/26 11:22:53;;;;;;;19.75;5.10;;;26.40;71.90;;;;;;5032123;28;20033;-83
2022/08/26 11:25:23;;;;;;;10.15;5.18;;;26.50;71.80;;;;;;5050032;28;20026;-84
2022/08/26 11:27:51;;;;;;;9.93;5.40;;;26.60;72.30;;;;;;5031904;28;20029;-83
2022/08/26 11:30:19;;;;;;;14.18;5.80;;;26.70;72.10;;;;;;5034295;28;20389;-83
2022/08/26 11:32:52;;;;;;;8.73;5.03;;;26.60;70.70;;;;;;5025390;28;20049;-84
2022/08/26 11:35:18;;;;;;;11.85;5.03;;;26.70;70.50;;;;;;5035058;28;20040;-84
2022/08/26 11:37:49;;;;;;;13.75;6.07;;;26.90;71.10;;;;;;5032523;28;20029;-84
2022/08/26 11:40:19;;;;;;;11.05;4.97;;;26.90;70.90;;;;;;5022336;28;20025;-83
2022/08/26 11:43:01;;;;;;;13.23;5.40;;;26.90;70.10;;;;;;5034078;28;20049;-84
2022/08/26 11:45:37;;;;;;;13.32;5.43;;;26.90;71.10;;;;;;5035038;28;20387;-84
2022/08/26 11:48:32;;;;;;;13.68;5.43;;;27.10;71.30;;;;;;5033748;28;20029;-84
2022/08/26 11:51:07;;;;;;;18.30;6.00;;;27.10;71.10;;;;;;5032754;28;20116;-84
2022/08/26 11:53:39;;;;;;;14.70;5.78;;;27.30;69.60;;;;;;5032583;28;20026;-84
2022/08/26 11:56:15;;;;;;;15.50;5.90;;;27.40;70.70;;;;;;5033486;28;20432;-84
2022/08/26 11:58:43;;;;;;;14.75;5.72;;;27.40;69.90;;;;;;5047412;28;20063;-84
2022/08/26 12:01:26;;;;;;;13.52;5.38;;;27.40;70.30;;;;;;5029879;28;20034;-84
2022/08/26 12:03:52;;;;;;;12.70;5.72;;;27.50;70.10;;;;;;5032316;28;20033;-82
2022/08/26 12:06:24;;;;;;;16.63;5.93;;;27.60;69.20;;;;;;5031980;28;20034;-84
2022/08/26 12:08:52;;;;;;;17.95;5.55;;;27.50;68.90;;;;;;5032853;28;20026;-84
2022/08/26 12:11:24;;;;;;;14.00;5.25;;;27.80;67.90;;;;;;5035473;28;20025;-87
2022/08/26 12:14:04;;;;;;;14.95;6.20;;;28.10;68.00;;;;;;5019765;28;20028;-83
2022/08/26 12:16:32;;;;;;;14.40;5.88;;;28.50;66.10;;;;;;5026372;28;20038;-85
2022/08/26 12:18:58;;;;;;;15.18;6.47;;;28.60;65.20;;;;;;5035380;28;20187;-84
2022/08/26 12:21:28;;;;;;;15.48;5.93;;;28.70;65.00;;;;;;5036842;28;20128;-83
2022/08/26 12:23:55;;;;;;;12.77;5.57;;;28.20;66.90;;;;;;5036252;28;20501;-84
2022/08/26 12:26:32;;;;;;;17.73;6.35;;;28.10;67.20;;;;;;5038615;28;20033;-84
2022/08/26 12:29:07;;;;;;;13.38;6.40;;;28.00;66.00;;;;;;5035640;28;20030;-84
2022/08/26 12:31:35;;;;;;;11.05;5.90;;;28.00;66.50;;;;;;5029091;28;20022;-84
2022/08/26 12:34:03;;;;;;;17.30;6.25;;;28.00;67.00;;;;;;5035779;28;20033;-84
2022/08/26 12:36:34;;;;;;;15.00;5.78;;;27.90;66.40;;;;;;5042435;28;20028;-83
2022/08/26 12:39:12;;;;;;;14.93;6.35;;;28.00;67.30;;;;;;5036233;28;20560;-84
2022/08/26 12:41:45;;;;;;;16.30;5.85;;;28.20;67.70;;;;;;5035308;28;20800;-85
2022/08/26 12:44:31;;;;;;;11.95;6.03;;;28.20;67.70;;;;;;5035578;28;20033;-85
2022/08/26 12:47:09;;;;;;;14.25;6.03;;;28.30;65.70;;;;;;5038096;28;20041;-85
2022/08/26 12:49:38;;;;;;;15.70;6.15;;;28.10;66.00;;;;;;5036748;28;20439;-84
2022/08/26 12:52:05;;;;;;;14.70;6.45;;;28.00;65.70;;;;;;5034179;28;20027;-84
2022/08/26 12:57:14;;;;;;;15.75;6.05;;;28.00;67.50;;;;;;5034006;28;20084;-85